sensor_id;sensor_type;location;lat;lon;timestamp;pressure;altitude;pressure_sealevel;temperature;humidity
66801;BME280;53703;50.326;19.122;2023-11-22T00:00:14;98889.60;;;19.31;50.54
66801;BME280;53703;50.326;19.122;2023-11-22T00:03:08;98895.15;;;19.22;50.70
66801;BME280;53703;50.326;19.122;2023-11-22T00:05:41;98901.71;;;19.23;50.77
66801;BME280;53703;50.326;19.122;2023-11-22T00:08:15;98901.33;;;19.23;50.82
66801;BME280;53703;50.326;19.122;2023-11-22T00:10:48;98907.11;;;19.40;50.34
66801;BME280;53703;50.326;19.122;2023-11-22T00:13:21;98911.12;;;19.25;50.70
66801;BME280;53703;50.326;19.122;2023-11-22T00:15:55;98916.25;;;19.19;50.81
66801;BME280;53703;50.326;19.122;2023-11-22T00:18:29;98922.55;;;19.19;50.66
66801;BME280;53703;50.326;19.122;2023-11-22T00:21:02;98924.95;;;19.17;50.77
66801;BME280;53703;50.326;19.122;2023-11-22T00:23:36;98924.98;;;19.26;50.35
66801;BME280;53703;50.326;19.122;2023-11-22T00:26:09;98926.27;;;19.32;50.05
66801;BME280;53703;50.326;19.122;2023-11-22T00:28:43;98927.59;;;19.18;50.60
66801;BME280;53703;50.326;19.122;2023-11-22T00:31:16;98933.58;;;19.17;50.83
66801;BME280;53703;50.326;19.122;2023-11-22T00:33:50;98935.47;;;19.25;50.22
66801;BME280;53703;50.326;19.122;2023-11-22T00:36:23;98941.80;;;19.26;50.14
66801;BME280;53703;50.326;19.122;2023-11-22T00:38:56;98941.81;;;19.23;49.86
66801;BME280;53703;50.326;19.122;2023-11-22T00:41:34;98944.42;;;19.23;50.05
66801;BME280;53703;50.326;19.122;2023-11-22T00:44:08;98941.90;;;19.16;50.09
66801;BME280;53703;50.326;19.122;2023-11-22T00:46:41;98945.33;;;19.16;50.36
66801;BME280;53703;50.326;19.122;2023-11-22T00:49:17;98945.39;;;19.21;50.00
66801;BME280;53703;50.326;19.122;2023-11-22T00:51:51;98944.95;;;19.17;50.14
66801;BME280;53703;50.326;19.122;2023-11-22T00:54:24;98942.73;;;19.20;49.78
66801;BME280;53703;50.326;19.122;2023-11-22T00:56:58;98943.98;;;19.13;50.02
66801;BME280;53703;50.326;19.122;2023-11-22T00:59:32;98946.57;;;19.21;49.84
66801;BME280;53703;50.326;19.122;2023-11-22T01:02:05;98947.55;;;19.17;49.83
66801;BME280;53703;50.326;19.122;2023-11-22T01:04:40;98948.13;;;19.15;50.02
66801;BME280;53703;50.326;19.122;2023-11-22T01:07:14;98947.05;;;19.13;49.88
66801;BME280;53703;50.326;19.122;2023-11-22T01:09:48;98951.64;;;19.17;49.91
66801;BME280;53703;50.326;19.122;2023-11-22T01:12:21;98954.56;;;19.13;49.66
66801;BME280;53703;50.326;19.122;2023-11-22T01:14:54;98952.21;;;19.05;49.96
66801;BME280;53703;50.326;19.122;2023-11-22T01:17:28;98955.85;;;19.14;49.76
66801;BME280;53703;50.326;19.122;2023-11-22T01:20:01;98955.30;;;19.06;49.81
66801;BME280;53703;50.326;19.122;2023-11-22T01:22:35;98956.63;;;19.10;49.72
66801;BME280;53703;50.326;19.122;2023-11-22T01:25:10;98960.80;;;19.02;49.77
66801;BME280;53703;50.326;19.122;2023-11-22T01:27:43;98958.77;;;19.06;49.95
66801;BME280;53703;50.326;19.122;2023-11-22T01:30:17;98958.84;;;19.01;50.20
66801;BME280;53703;50.326;19.122;2023-11-22T01:32:51;98965.34;;;19.09;49.77
66801;BME280;53703;50.326;19.122;2023-11-22T01:35:24;98960.16;;;19.07;49.86
66801;BME280;53703;50.326;19.122;2023-11-22T01:37:58;98963.98;;;19.05;49.77
66801;BME280;53703;50.326;19.122;2023-11-22T01:40:31;98969.58;;;19.08;49.54
66801;BME280;53703;50.326;19.122;2023-11-22T01:43:05;98974.19;;;19.09;49.59
66801;BME280;53703;50.326;19.122;2023-11-22T01:45:38;98973.31;;;18.96;49.80
66801;BME280;53703;50.326;19.122;2023-11-22T01:48:12;98974.77;;;18.95;49.90
66801;BME280;53703;50.326;19.122;2023-11-22T01:50:46;98972.73;;;19.09;49.68
66801;BME280;53703;50.326;19.122;2023-11-22T01:53:20;98973.16;;;19.08;49.65
66801;BME280;53703;50.326;19.122;2023-11-22T01:55:54;98978.89;;;19.07;49.66
66801;BME280;53703;50.326;19.122;2023-11-22T01:58:28;98983.58;;;19.08;49.81
66801;BME280;53703;50.326;19.122;2023-11-22T02:01:03;98986.91;;;18.99;50.01
66801;BME280;53703;50.326;19.122;2023-11-22T02:03:37;98989.39;;;18.99;49.65
66801;BME280;53703;50.326;19.122;2023-11-22T02:06:11;98991.29;;;19.09;49.52
66801;BME280;53703;50.326;19.122;2023-11-22T02:08:44;98991.38;;;19.03;49.65
66801;BME280;53703;50.326;19.122;2023-11-22T02:11:20;98991.29;;;19.02;49.60
66801;BME280;53703;50.326;19.122;2023-11-22T02:13:54;99000.15;;;19.00;49.55
66801;BME280;53703;50.326;19.122;2023-11-22T02:16:28;98999.31;;;19.04;49.28
66801;BME280;53703;50.326;19.122;2023-11-22T02:19:02;98995.70;;;18.97;49.47
66801;BME280;53703;50.326;19.122;2023-11-22T02:21:37;99001.11;;;18.98;49.57
66801;BME280;53703;50.326;19.122;2023-11-22T02:24:11;99003.30;;;18.97;49.49
66801;BME280;53703;50.326;19.122;2023-11-22T02:26:47;99005.29;;;18.95;49.47
66801;BME280;53703;50.326;19.122;2023-11-22T02:29:21;99008.30;;;18.93;49.38
66801;BME280;53703;50.326;19.122;2023-11-22T02:31:55;99008.11;;;18.92;49.51
66801;BME280;53703;50.326;19.122;2023-11-22T02:34:29;99015.63;;;18.95;49.60
66801;BME280;53703;50.326;19.122;2023-11-22T02:37:03;99018.37;;;18.94;49.41
66801;BME280;53703;50.326;19.122;2023-11-22T02:39:48;99022.59;;;18.93;49.69
66801;BME280;53703;50.326;19.122;2023-11-22T02:42:25;99026.00;;;18.93;49.41
66801;BME280;53703;50.326;19.122;2023-11-22T02:44:59;99026.07;;;18.88;49.42
66801;BME280;53703;50.326;19.122;2023-11-22T02:47:32;99028.02;;;18.85;49.72
66801;BME280;53703;50.326;19.122;2023-11-22T02:50:08;99037.09;;;18.89;49.62
66801;BME280;53703;50.326;19.122;2023-11-22T02:52:42;99037.90;;;18.89;49.50
66801;BME280;53703;50.326;19.122;2023-11-22T02:55:16;99037.82;;;18.92;49.25
66801;BME280;53703;50.326;19.122;2023-11-22T02:57:49;99044.75;;;18.88;49.45
66801;BME280;53703;50.326;19.122;2023-11-22T03:00:23;99045.18;;;18.87;49.51
66801;BME280;53703;50.326;19.122;2023-11-22T03:02:57;99043.70;;;18.78;49.64
66801;BME280;53703;50.326;19.122;2023-11-22T03:05:34;99045.52;;;18.85;49.35
66801;BME280;53703;50.326;19.122;2023-11-22T03:08:09;99051.10;;;18.82;49.52
66801;BME280;53703;50.326;19.122;2023-11-22T03:10:42;99059.46;;;18.82;49.33
66801;BME280;53703;50.326;19.122;2023-11-22T03:13:16;99062.13;;;18.86;49.38
66801;BME280;53703;50.326;19.122;2023-11-22T03:15:49;99065.60;;;18.85;49.29
66801;BME280;53703;50.326;19.122;2023-11-22T03:18:23;99068.89;;;18.82;49.38
66801;BME280;53703;50.326;19.122;2023-11-22T03:20:56;99077.16;;;18.84;49.25
66801;BME280;53703;50.326;19.122;2023-11-22T03:23:29;99084.16;;;18.76;49.46
66801;BME280;53703;50.326;19.122;2023-11-22T03:26:05;99092.41;;;18.85;49.23
66801;BME280;53703;50.326;19.122;2023-11-22T03:28:38;99098.22;;;18.83;49.30
66801;BME280;53703;50.326;19.122;2023-11-22T03:31:12;99104.16;;;18.71;49.39
66801;BME280;53703;50.326;19.122;2023-11-22T03:33:46;99110.77;;;18.75;49.44
66801;BME280;53703;50.326;19.122;2023-11-22T03:36:19;99115.31;;;18.75;49.38
66801;BME280;53703;50.326;19.122;2023-11-22T03:38:53;99121.45;;;18.78;49.17
66801;BME280;53703;50.326;19.122;2023-11-22T03:41:26;99123.95;;;18.78;48.94
66801;BME280;53703;50.326;19.122;2023-11-22T03:43:59;99128.98;;;18.72;49.12
66801;BME280;53703;50.326;19.122;2023-11-22T03:46:33;99132.42;;;18.69;49.23
66801;BME280;53703;50.326;19.122;2023-11-22T03:49:08;99142.62;;;18.67;49.37
66801;BME280;53703;50.326;19.122;2023-11-22T03:51:43;99148.23;;;18.67;49.19
66801;BME280;53703;50.326;19.122;2023-11-22T03:54:16;99150.69;;;18.67;49.06
66801;BME280;53703;50.326;19.122;2023-11-22T03:56:50;99153.25;;;18.64;49.12
66801;BME280;53703;50.326;19.122;2023-11-22T03:59:24;99156.09;;;18.66;48.93
66801;BME280;53703;50.326;19.122;2023-11-22T04:01:57;99165.63;;;18.63;49.14
66801;BME280;53703;50.326;19.122;2023-11-22T04:04:31;99169.02;;;18.60;49.11
66801;BME280;53703;50.326;19.122;2023-11-22T04:07:04;99176.16;;;18.62;49.13
66801;BME280;53703;50.326;19.122;2023-11-22T04:09:38;99182.52;;;18.67;48.86
66801;BME280;53703;50.326;19.122;2023-11-22T04:12:11;99183.75;;;18.70;48.64
66801;BME280;53703;50.326;19.122;2023-11-22T04:14:45;99185.02;;;18.64;48.98
66801;BME280;53703;50.326;19.122;2023-11-22T04:17:19;99193.62;;;18.64;48.89
66801;BME280;53703;50.326;19.122;2023-11-22T04:19:52;99193.45;;;18.66;48.93
66801;BME280;53703;50.326;19.122;2023-11-22T04:22:26;99199.59;;;18.63;48.90
66801;BME280;53703;50.326;19.122;2023-11-22T04:24:59;99205.38;;;18.65;48.97
66801;BME280;53703;50.326;19.122;2023-11-22T04:27:33;99210.00;;;18.57;48.83
66801;BME280;53703;50.326;19.122;2023-11-22T04:30:09;99217.72;;;18.55;49.07
66801;BME280;53703;50.326;19.122;2023-11-22T04:32:46;99220.80;;;18.60;49.10
66801;BME280;53703;50.326;19.122;2023-11-22T04:35:20;99228.55;;;18.62;48.80
66801;BME280;53703;50.326;19.122;2023-11-22T04:37:53;99234.29;;;18.61;48.88
66801;BME280;53703;50.326;19.122;2023-11-22T04:40:27;99243.77;;;18.61;48.90
66801;BME280;53703;50.326;19.122;2023-11-22T04:43:01;99248.02;;;18.59;48.90
66801;BME280;53703;50.326;19.122;2023-11-22T04:45:35;99253.42;;;18.62;48.62
66801;BME280;53703;50.326;19.122;2023-11-22T04:48:09;99258.34;;;18.58;48.78
66801;BME280;53703;50.326;19.122;2023-11-22T04:50:43;99259.65;;;18.61;48.70
66801;BME280;53703;50.326;19.122;2023-11-22T04:53:16;99263.23;;;18.58;48.61
66801;BME280;53703;50.326;19.122;2023-11-22T04:55:50;99263.61;;;18.53;48.88
66801;BME280;53703;50.326;19.122;2023-11-22T04:58:23;99266.68;;;18.57;48.65
66801;BME280;53703;50.326;19.122;2023-11-22T05:00:58;99268.79;;;18.54;48.61
66801;BME280;53703;50.326;19.122;2023-11-22T05:03:31;99273.27;;;18.58;48.52
66801;BME280;53703;50.326;19.122;2023-11-22T05:06:06;99278.04;;;18.50;48.50
66801;BME280;53703;50.326;19.122;2023-11-22T05:08:39;99282.08;;;18.46;48.65
66801;BME280;53703;50.326;19.122;2023-11-22T05:11:13;99283.83;;;18.47;48.62
66801;BME280;53703;50.326;19.122;2023-11-22T05:13:48;99288.21;;;18.48;48.45
66801;BME280;53703;50.326;19.122;2023-11-22T05:16:22;99295.73;;;18.44;48.46
66801;BME280;53703;50.326;19.122;2023-11-22T05:18:56;99301.71;;;18.46;48.36
66801;BME280;53703;50.326;19.122;2023-11-22T05:21:29;99303.93;;;18.42;48.44
66801;BME280;53703;50.326;19.122;2023-11-22T05:24:03;99307.45;;;18.41;48.42
66801;BME280;53703;50.326;19.122;2023-11-22T05:26:36;99304.88;;;18.42;48.39
66801;BME280;53703;50.326;19.122;2023-11-22T05:29:10;99298.94;;;18.39;48.31
66801;BME280;53703;50.326;19.122;2023-11-22T05:31:44;99299.83;;;18.38;48.21
66801;BME280;53703;50.326;19.122;2023-11-22T05:34:17;99303.52;;;18.39;48.31
66801;BME280;53703;50.326;19.122;2023-11-22T05:36:51;99305.67;;;18.38;48.09
66801;BME280;53703;50.326;19.122;2023-11-22T05:39:25;99305.50;;;18.35;48.15
66801;BME280;53703;50.326;19.122;2023-11-22T05:41:58;99302.78;;;18.34;48.30
66801;BME280;53703;50.326;19.122;2023-11-22T05:44:32;99308.91;;;18.36;48.35
66801;BME280;53703;50.326;19.122;2023-11-22T05:47:06;99315.77;;;18.31;48.50
66801;BME280;53703;50.326;19.122;2023-11-22T05:49:40;99325.27;;;18.40;48.17
66801;BME280;53703;50.326;19.122;2023-11-22T05:52:13;99333.01;;;18.40;48.82
66801;BME280;53703;50.326;19.122;2023-11-22T05:54:47;99335.30;;;18.34;48.53
66801;BME280;53703;50.326;19.122;2023-11-22T05:57:20;99340.54;;;18.26;48.69
66801;BME280;53703;50.326;19.122;2023-11-22T05:59:54;99344.56;;;18.34;48.63
66801;BME280;53703;50.326;19.122;2023-11-22T06:02:27;99344.58;;;18.26;48.66
66801;BME280;53703;50.326;19.122;2023-11-22T06:05:01;99349.13;;;18.24;48.80
66801;BME280;53703;50.326;19.122;2023-11-22T06:07:34;99349.86;;;18.26;48.59
66801;BME280;53703;50.326;19.122;2023-11-22T06:10:09;99350.95;;;18.30;48.51
66801;BME280;53703;50.326;19.122;2023-11-22T06:12:44;99355.59;;;18.22;48.67
66801;BME280;53703;50.326;19.122;2023-11-22T06:15:17;99363.33;;;18.26;48.56
66801;BME280;53703;50.326;19.122;2023-11-22T06:17:53;99370.98;;;18.29;48.44
66801;BME280;53703;50.326;19.122;2023-11-22T06:20:26;99375.05;;;18.27;48.43
66801;BME280;53703;50.326;19.122;2023-11-22T06:23:00;99378.25;;;18.24;48.41
66801;BME280;53703;50.326;19.122;2023-11-22T06:25:34;99388.17;;;18.23;48.42
66801;BME280;53703;50.326;19.122;2023-11-22T06:28:08;99389.08;;;18.24;48.43
66801;BME280;53703;50.326;19.122;2023-11-22T06:30:41;99385.36;;;18.24;48.39
66801;BME280;53703;50.326;19.122;2023-11-22T06:33:15;99387.08;;;18.23;48.55
66801;BME280;53703;50.326;19.122;2023-11-22T06:35:48;99391.28;;;18.20;48.51
66801;BME280;53703;50.326;19.122;2023-11-22T06:38:22;99393.14;;;18.19;48.49
66801;BME280;53703;50.326;19.122;2023-11-22T06:40:55;99406.29;;;18.16;48.38
66801;BME280;53703;50.326;19.122;2023-11-22T06:43:29;99405.70;;;18.14;48.42
66801;BME280;53703;50.326;19.122;2023-11-22T06:46:02;99403.11;;;18.14;48.35
66801;BME280;53703;50.326;19.122;2023-11-22T06:48:38;99404.80;;;18.13;48.15
66801;BME280;53703;50.326;19.122;2023-11-22T06:51:11;99408.34;;;18.08;48.38
66801;BME280;53703;50.326;19.122;2023-11-22T06:53:45;99414.10;;;18.11;48.25
66801;BME280;53703;50.326;19.122;2023-11-22T06:56:18;99412.98;;;18.12;48.22
66801;BME280;53703;50.326;19.122;2023-11-22T06:58:52;99411.38;;;18.06;48.21
66801;BME280;53703;50.326;19.122;2023-11-22T07:01:26;99412.25;;;18.06;48.14
66801;BME280;53703;50.326;19.122;2023-11-22T07:04:00;99413.10;;;18.02;48.29
66801;BME280;53703;50.326;19.122;2023-11-22T07:06:36;99420.34;;;18.05;48.11
66801;BME280;53703;50.326;19.122;2023-11-22T07:09:10;99423.31;;;18.06;48.08
66801;BME280;53703;50.326;19.122;2023-11-22T07:11:44;99421.38;;;18.03;48.14
66801;BME280;53703;50.326;19.122;2023-11-22T07:14:17;99427.02;;;18.00;48.20
66801;BME280;53703;50.326;19.122;2023-11-22T07:16:51;99432.96;;;18.00;48.31
66801;BME280;53703;50.326;19.122;2023-11-22T07:19:26;99432.80;;;17.98;48.21
66801;BME280;53703;50.326;19.122;2023-11-22T07:22:00;99441.11;;;18.03;48.19
66801;BME280;53703;50.326;19.122;2023-11-22T07:24:36;99447.41;;;18.02;48.45
66801;BME280;53703;50.326;19.122;2023-11-22T07:27:10;99460.09;;;18.12;47.95
66801;BME280;53703;50.326;19.122;2023-11-22T07:29:45;99467.25;;;18.07;48.06
66801;BME280;53703;50.326;19.122;2023-11-22T07:32:19;99464.41;;;18.08;48.21
66801;BME280;53703;50.326;19.122;2023-11-22T07:34:53;99464.96;;;18.08;48.05
66801;BME280;53703;50.326;19.122;2023-11-22T07:37:28;99466.91;;;18.05;48.10
66801;BME280;53703;50.326;19.122;2023-11-22T07:40:04;99471.40;;;18.09;48.02
66801;BME280;53703;50.326;19.122;2023-11-22T07:42:40;99478.88;;;18.08;47.89
66801;BME280;53703;50.326;19.122;2023-11-22T07:45:13;99486.77;;;18.04;48.10
66801;BME280;53703;50.326;19.122;2023-11-22T07:47:47;99490.52;;;18.02;48.15
66801;BME280;53703;50.326;19.122;2023-11-22T07:50:21;99497.58;;;18.03;48.24
66801;BME280;53703;50.326;19.122;2023-11-22T07:52:57;99493.88;;;18.01;48.17
66801;BME280;53703;50.326;19.122;2023-11-22T07:55:30;99487.35;;;18.00;48.51
66801;BME280;53703;50.326;19.122;2023-11-22T07:58:04;99489.11;;;17.99;48.89
66801;BME280;53703;50.326;19.122;2023-11-22T08:00:40;99480.63;;;18.03;48.77
66801;BME280;53703;50.326;19.122;2023-11-22T08:03:15;99492.02;;;18.00;48.97
66801;BME280;53703;50.326;19.122;2023-11-22T08:05:51;99492.13;;;18.01;48.93
66801;BME280;53703;50.326;19.122;2023-11-22T08:08:26;99488.98;;;18.01;48.16
66801;BME280;53703;50.326;19.122;2023-11-22T08:10:59;99492.45;;;17.99;47.88
66801;BME280;53703;50.326;19.122;2023-11-22T08:13:34;99495.86;;;18.00;48.26
66801;BME280;53703;50.326;19.122;2023-11-22T08:16:09;99503.25;;;17.97;48.26
66801;BME280;53703;50.326;19.122;2023-11-22T08:18:43;99506.02;;;17.93;48.72
66801;BME280;53703;50.326;19.122;2023-11-22T08:21:16;99515.85;;;17.95;47.75
66801;BME280;53703;50.326;19.122;2023-11-22T08:23:50;99505.79;;;17.96;47.96
66801;BME280;53703;50.326;19.122;2023-11-22T08:26:25;99508.48;;;17.94;47.72
66801;BME280;53703;50.326;19.122;2023-11-22T08:28:59;99506.86;;;17.95;47.59
66801;BME280;53703;50.326;19.122;2023-11-22T08:31:32;99517.41;;;17.96;48.17
66801;BME280;53703;50.326;19.122;2023-11-22T08:34:06;99524.59;;;17.93;47.52
66801;BME280;53703;50.326;19.122;2023-11-22T08:36:41;99521.39;;;17.91;47.53
66801;BME280;53703;50.326;19.122;2023-11-22T08:39:14;99529.09;;;17.91;47.54
66801;BME280;53703;50.326;19.122;2023-11-22T08:41:48;99536.66;;;17.92;47.70
66801;BME280;53703;50.326;19.122;2023-11-22T08:44:22;99536.46;;;17.91;48.55
66801;BME280;53703;50.326;19.122;2023-11-22T08:46:56;99531.65;;;17.92;47.84
66801;BME280;53703;50.326;19.122;2023-11-22T08:49:29;99531.09;;;17.84;48.50
66801;BME280;53703;50.326;19.122;2023-11-22T08:52:03;99529.39;;;17.89;47.62
66801;BME280;53703;50.326;19.122;2023-11-22T08:54:39;99532.00;;;17.85;48.98
66801;BME280;53703;50.326;19.122;2023-11-22T08:57:13;99530.27;;;17.80;47.63
66801;BME280;53703;50.326;19.122;2023-11-22T08:59:47;99530.96;;;17.68;48.42
66801;BME280;53703;50.326;19.122;2023-11-22T09:02:23;99541.58;;;17.78;49.02
66801;BME280;53703;50.326;19.122;2023-11-22T09:04:57;99540.80;;;17.75;46.80
66801;BME280;53703;50.326;19.122;2023-11-22T09:07:31;99544.35;;;17.56;44.29
66801;BME280;53703;50.326;19.122;2023-11-22T09:10:07;99544.11;;;17.70;48.29
66801;BME280;53703;50.326;19.122;2023-11-22T09:12:43;99534.45;;;17.67;47.82
66801;BME280;53703;50.326;19.122;2023-11-22T09:15:19;99536.94;;;17.63;47.83
66801;BME280;53703;50.326;19.122;2023-11-22T09:17:58;99548.88;;;17.82;48.38
66801;BME280;53703;50.326;19.122;2023-11-22T09:20:32;99551.16;;;17.85;48.86
66801;BME280;53703;50.326;19.122;2023-11-22T09:23:05;99548.34;;;17.96;48.18
66801;BME280;53703;50.326;19.122;2023-11-22T09:25:39;99545.42;;;17.91;43.83
66801;BME280;53703;50.326;19.122;2023-11-22T09:28:12;99550.65;;;17.59;41.72
66801;BME280;53703;50.326;19.122;2023-11-22T09:30:48;99547.54;;;17.20;41.92
66801;BME280;53703;50.326;19.122;2023-11-22T09:33:22;99540.03;;;16.94;41.23
66801;BME280;53703;50.326;19.122;2023-11-22T09:35:56;99540.02;;;17.36;45.25
66801;BME280;53703;50.326;19.122;2023-11-22T09:38:30;99538.79;;;17.67;48.03
66801;BME280;53703;50.326;19.122;2023-11-22T09:41:04;99537.84;;;17.82;48.33
66801;BME280;53703;50.326;19.122;2023-11-22T09:43:40;99546.38;;;17.91;49.16
66801;BME280;53703;50.326;19.122;2023-11-22T09:46:14;99560.39;;;17.81;51.78
66801;BME280;53703;50.326;19.122;2023-11-22T09:48:52;99566.77;;;17.87;51.45
66801;BME280;53703;50.326;19.122;2023-11-22T09:51:30;99565.32;;;17.82;51.53
66801;BME280;53703;50.326;19.122;2023-11-22T09:54:08;99569.48;;;17.83;49.46
66801;BME280;53703;50.326;19.122;2023-11-22T09:56:44;99577.79;;;17.82;49.80
66801;BME280;53703;50.326;19.122;2023-11-22T09:59:24;99582.11;;;17.85;49.78
66801;BME280;53703;50.326;19.122;2023-11-22T10:01:57;99583.67;;;17.76;49.98
66801;BME280;53703;50.326;19.122;2023-11-22T10:04:32;99595.75;;;17.78;49.74
66801;BME280;53703;50.326;19.122;2023-11-22T10:07:06;99599.30;;;17.92;49.01
66801;BME280;53703;50.326;19.122;2023-11-22T10:09:41;99599.08;;;17.89;49.00
66801;BME280;53703;50.326;19.122;2023-11-22T10:12:20;99595.45;;;17.86;49.21
66801;BME280;53703;50.326;19.122;2023-11-22T10:14:54;99591.77;;;17.90;49.02
66801;BME280;53703;50.326;19.122;2023-11-22T10:17:29;99592.63;;;17.93;48.41
66801;BME280;53703;50.326;19.122;2023-11-22T10:20:03;99586.46;;;17.89;48.71
66801;BME280;53703;50.326;19.122;2023-11-22T10:22:48;99579.46;;;17.84;49.07
66801;BME280;53703;50.326;19.122;2023-11-22T10:25:22;99572.30;;;17.90;48.72
66801;BME280;53703;50.326;19.122;2023-11-22T10:27:55;99581.21;;;17.90;48.57
66801;BME280;53703;50.326;19.122;2023-11-22T10:30:30;99581.43;;;17.95;48.64
66801;BME280;53703;50.326;19.122;2023-11-22T10:33:05;99583.52;;;18.01;48.33
66801;BME280;53703;50.326;19.122;2023-11-22T10:35:38;99583.66;;;17.99;48.27
66801;BME280;53703;50.326;19.122;2023-11-22T10:38:14;99576.52;;;17.89;48.58
66801;BME280;53703;50.326;19.122;2023-11-22T10:40:48;99567.45;;;17.93;48.56
66801;BME280;53703;50.326;19.122;2023-11-22T10:43:24;99564.16;;;17.97;48.36
66801;BME280;53703;50.326;19.122;2023-11-22T10:45:59;99564.01;;;17.94;48.13
66801;BME280;53703;50.326;19.122;2023-11-22T10:48:34;99564.44;;;17.96;48.47
66801;BME280;53703;50.326;19.122;2023-11-22T10:51:12;99571.58;;;17.99;48.28
66801;BME280;53703;50.326;19.122;2023-11-22T10:53:49;99573.14;;;17.98;48.18
66801;BME280;53703;50.326;19.122;2023-11-22T10:56:24;99575.09;;;18.00;47.85
66801;BME280;53703;50.326;19.122;2023-11-22T10:59:04;99574.23;;;18.05;47.93
66801;BME280;53703;50.326;19.122;2023-11-22T11:01:45;99570.67;;;18.12;47.57
66801;BME280;53703;50.326;19.122;2023-11-22T11:04:33;99579.77;;;18.11;47.78
66801;BME280;53703;50.326;19.122;2023-11-22T11:07:11;99583.26;;;18.11;47.66
66801;BME280;53703;50.326;19.122;2023-11-22T11:09:48;99587.58;;;18.11;47.71
66801;BME280;53703;50.326;19.122;2023-11-22T11:12:23;99588.41;;;18.12;47.67
66801;BME280;53703;50.326;19.122;2023-11-22T11:14:56;99596.38;;;18.15;47.59
66801;BME280;53703;50.326;19.122;2023-11-22T11:17:31;99603.91;;;18.20;47.53
66801;BME280;53703;50.326;19.122;2023-11-22T11:20:07;99612.75;;;18.21;47.38
66801;BME280;53703;50.326;19.122;2023-11-22T11:22:48;99616.62;;;18.18;47.40
66801;BME280;53703;50.326;19.122;2023-11-22T11:25:21;99614.67;;;18.22;47.32
66801;BME280;53703;50.326;19.122;2023-11-22T11:28:01;99623.08;;;18.25;47.32
66801;BME280;53703;50.326;19.122;2023-11-22T11:30:46;99630.13;;;18.17;47.50
66801;BME280;53703;50.326;19.122;2023-11-22T11:33:33;99628.98;;;18.28;47.34
66801;BME280;53703;50.326;19.122;2023-11-22T11:36:08;99629.30;;;18.33;48.05
66801;BME280;53703;50.326;19.122;2023-11-22T11:38:42;99624.39;;;18.35;48.38
66801;BME280;53703;50.326;19.122;2023-11-22T11:41:16;99628.83;;;18.45;48.62
66801;BME280;53703;50.326;19.122;2023-11-22T11:43:50;99635.01;;;18.43;48.19
66801;BME280;53703;50.326;19.122;2023-11-22T11:46:23;99634.95;;;18.40;50.31
66801;BME280;53703;50.326;19.122;2023-11-22T11:48:58;99630.36;;;18.38;50.80
66801;BME280;53703;50.326;19.122;2023-11-22T11:51:31;99633.63;;;18.48;49.03
66801;BME280;53703;50.326;19.122;2023-11-22T11:54:05;99630.34;;;18.36;49.96
66801;BME280;53703;50.326;19.122;2023-11-22T11:56:41;99628.29;;;18.38;49.57
66801;BME280;53703;50.326;19.122;2023-11-22T11:59:16;99622.31;;;18.47;48.54
66801;BME280;53703;50.326;19.122;2023-11-22T12:01:55;99618.04;;;18.40;49.47
66801;BME280;53703;50.326;19.122;2023-11-22T12:04:32;99621.83;;;18.47;49.25
66801;BME280;53703;50.326;19.122;2023-11-22T12:07:09;99616.92;;;18.49;48.72
66801;BME280;53703;50.326;19.122;2023-11-22T12:09:44;99621.11;;;18.57;48.24
66801;BME280;53703;50.326;19.122;2023-11-22T12:12:18;99626.66;;;18.56;48.19
66801;BME280;53703;50.326;19.122;2023-11-22T12:14:52;99626.70;;;18.48;48.78
66801;BME280;53703;50.326;19.122;2023-11-22T12:17:28;99626.02;;;18.57;48.49
66801;BME280;53703;50.326;19.122;2023-11-22T12:20:16;99621.45;;;18.55;48.65
66801;BME280;53703;50.326;19.122;2023-11-22T12:22:53;99610.69;;;18.54;48.61
66801;BME280;53703;50.326;19.122;2023-11-22T12:25:29;99605.16;;;18.54;48.37
66801;BME280;53703;50.326;19.122;2023-11-22T12:28:03;99616.00;;;18.51;48.49
66801;BME280;53703;50.326;19.122;2023-11-22T12:30:38;99626.86;;;18.52;48.15
66801;BME280;53703;50.326;19.122;2023-11-22T12:33:14;99634.88;;;18.55;48.33
66801;BME280;53703;50.326;19.122;2023-11-22T12:35:50;99642.55;;;18.55;48.01
66801;BME280;53703;50.326;19.122;2023-11-22T12:38:25;99650.98;;;18.56;48.04
66801;BME280;53703;50.326;19.122;2023-11-22T12:41:02;99660.27;;;18.62;47.80
66801;BME280;53703;50.326;19.122;2023-11-22T12:43:36;99662.23;;;18.57;47.80
66801;BME280;53703;50.326;19.122;2023-11-22T12:46:21;99661.73;;;18.54;47.91
66801;BME280;53703;50.326;19.122;2023-11-22T12:49:07;99660.96;;;18.59;47.77
66801;BME280;53703;50.326;19.122;2023-11-22T12:51:49;99663.42;;;18.62;47.51
66801;BME280;53703;50.326;19.122;2023-11-22T12:54:23;99659.61;;;18.66;47.26
66801;BME280;53703;50.326;19.122;2023-11-22T12:56:57;99652.52;;;18.67;47.61
66801;BME280;53703;50.326;19.122;2023-11-22T12:59:32;99644.41;;;18.66;47.50
66801;BME280;53703;50.326;19.122;2023-11-22T13:02:06;99641.37;;;18.65;47.61
66801;BME280;53703;50.326;19.122;2023-11-22T13:04:40;99648.32;;;18.67;47.51
66801;BME280;53703;50.326;19.122;2023-11-22T13:07:14;99653.39;;;18.67;47.45
66801;BME280;53703;50.326;19.122;2023-11-22T13:09:47;99651.48;;;18.65;47.51
66801;BME280;53703;50.326;19.122;2023-11-22T13:12:20;99646.81;;;18.69;47.31
66801;BME280;53703;50.326;19.122;2023-11-22T13:14:56;99641.48;;;18.66;47.43
66801;BME280;53703;50.326;19.122;2023-11-22T13:17:30;99635.99;;;18.67;47.16
66801;BME280;53703;50.326;19.122;2023-11-22T13:20:04;99638.63;;;18.67;47.28
66801;BME280;53703;50.326;19.122;2023-11-22T13:22:45;99640.16;;;18.65;47.19
66801;BME280;53703;50.326;19.122;2023-11-22T13:25:19;99650.33;;;18.68;47.15
66801;BME280;53703;50.326;19.122;2023-11-22T13:27:53;99650.69;;;18.68;47.18